Flight Track Log - Related Links

Times and Time Zones

All times are in EDT time to prevent confusion due to time zone crossing. See the UPS9843 flight status page for this flight to view local times or setup timezone preferences in your user account.

Time Position Orientation Groundspeed Altitude Reporting Facility
EDT Latitude Longitude Course Direction KTS MPH feet Rate Location/Type
Wed 08:19:44 PM 27.9000 -82.6833 180° South 156 180 700  Level Tampa TRACON
Wed 08:20:56 PM 27.8500 -82.6833 300° West 210 242 4,200 3,087 Climbing Tampa TRACON
Wed 08:22:02 PM 27.8833 -82.7500 17° North 266 306 7,800 2,261 Climbing Tampa TRACON
Wed 08:24:23 PM 28.0706 -82.6856 351° North 297 342 12,000 1,552 Climbing Jacksonville Center
Wed 08:25:23 PM 28.1581 -82.7019 349° North 302 348 13,000 1,950 Climbing Jacksonville Center
Wed 08:26:23 PM 28.2561 -82.7228 356° North 327 376 15,900 3,300 Climbing Jacksonville Center
Wed 08:27:23 PM 28.3647 -82.7322 359° North 365 420 19,600 3,450 Climbing Jacksonville Center
Wed 08:28:23 PM 28.4817 -82.7344 North 391 450 22,800 2,950 Climbing Jacksonville Center
Wed 08:29:23 PM 28.6047 -82.7317 North 412 474 25,500 2,400 Climbing Jacksonville Center
Wed 08:30:23 PM 28.7175 -82.7269 360° North 437 503 27,600 2,200 Climbing Jacksonville Center
Wed 08:31:23 PM 28.8469 -82.7267 North 449 517 29,900 2,600 Climbing Jacksonville Center
Wed 08:32:23 PM 28.9783 -82.7144 North 460 529 32,800 2,800 Climbing Jacksonville Center
Wed 08:33:23 PM 29.1078 -82.7000 North 460 529 35,500 1,600 Climbing Jacksonville Center
Wed 08:34:23 PM 29.2433 -82.6878 North 465 535 36,000 250 Climbing Jacksonville Center
Wed 08:35:23 PM 29.3792 -82.6708 North 475 547 36,000 350 Level Jacksonville Center
Wed 08:36:23 PM 29.5167 -82.6586 North 489 563 36,700 500 Climbing Jacksonville Center
Wed 08:37:23 PM 29.6525 -82.6442 North 489 563 37,000 150 Climbing Jacksonville Center
Wed 08:38:23 PM 29.7861 -82.6269 North 484 557 37,000  Level Jacksonville Center
Wed 08:39:23 PM 29.9156 -82.6144 North 473 544 37,000  Level Jacksonville Center
Wed 08:40:23 PM 30.0533 -82.6022 North 461 531 37,000  Level Jacksonville Center
Wed 08:41:23 PM 30.1783 -82.5897 North 454 522 37,000  Level Jacksonville Center
Wed 08:42:23 PM 30.3078 -82.5775 North 454 522 37,000  Level Jacksonville Center
Wed 08:43:23 PM 30.4353 -82.5625 North 454 522 37,000  Level Jacksonville Center
Wed 08:44:23 PM 30.5625 -82.5475 North 454 522 37,000  Level Jacksonville Center
Wed 08:45:23 PM 30.6900 -82.5350 North 459 528 37,000  Level Jacksonville Center
Wed 08:46:23 PM 30.8172 -82.5178 North 459 528 37,000  Level Jacksonville Center
Wed 08:47:23 PM 30.9444 -82.5025 North 459 528 37,000  Level Jacksonville Center
Wed 08:48:23 PM 31.0739 -82.4875 North 459 528 37,000  Level Jacksonville Center
Wed 08:49:23 PM 31.2011 -82.4747 North 459 528 37,000  Level Jacksonville Center
Wed 08:50:23 PM 31.3286 -82.4597 North 459 528 37,000  Level Jacksonville Center
Wed 08:52:28 PM 31.5961 -82.4250 North 462 532 37,000  Level Atlanta Center
Wed 08:53:28 PM 31.7253 -82.4103 North 462 532 37,000  Level Atlanta Center
Wed 08:54:28 PM 31.8525 -82.3933 North 462 532 37,000 -50 Level Atlanta Center
Wed 08:55:28 PM 31.9794 -82.3764 North 462 532 36,900 -550 Descending Atlanta Center
Wed 08:56:28 PM 32.1047 -82.3617 North 462 532 35,900 -1,000 Descending Atlanta Center
Wed 08:57:28 PM 32.2317 -82.3469 North 462 532 34,900 -1,050 Descending Atlanta Center
Wed 08:58:28 PM 32.3422 -82.3328 North 462 532 33,800 -1,150 Descending Atlanta Center
Wed 08:59:28 PM 32.4672 -82.3206 North 457 526 32,600 -1,200 Descending Atlanta Center
Wed 09:00:28 PM 32.5881 -82.3033 North 445 512 31,400 -1,250 Descending Atlanta Center
Wed 09:01:28 PM 32.7089 -82.2886 North 440 506 30,100 -1,350 Descending Atlanta Center
Wed 09:02:28 PM 32.8278 -82.2764 North 440 506 28,700 -1,450 Descending Atlanta Center
Wed 09:03:28 PM 32.9422 -82.2592 North 430 495 27,200 -1,500 Descending Atlanta Center
Wed 09:04:28 PM 33.0569 -82.2469 North 410 472 25,700 -1,550 Descending Atlanta Center
Wed 09:05:28 PM 33.1672 -82.2322 North 404 465 24,100 -1,650 Descending Atlanta Center
Wed 09:06:28 PM 33.2756 -82.2175 North 396 456 22,400 -1,750 Descending Atlanta Center
Wed 09:07:28 PM 33.3922 -82.2028 North 391 450 20,600 -1,550 Descending Atlanta Center
Wed 09:08:28 PM 33.4986 -82.1903 North 379 436 19,300 -1,300 Descending Atlanta Center
Wed 09:09:28 PM 33.6006 -82.1758 North 379 436 18,000 -1,250 Descending Atlanta Center
Wed 09:10:28 PM 33.7047 -82.1661 North 374 430 16,800 -1,300 Descending Atlanta Center
Wed 09:11:28 PM 33.8050 -82.1614 North 369 425 15,400 -1,500 Descending Atlanta Center
Wed 09:12:28 PM 33.9050 -82.1592 360° North 364 419 13,800 -1,600 Descending Atlanta Center
Wed 09:13:28 PM 34.0031 -82.1594 North 359 413 12,200 -1,400 Descending Atlanta Center
Wed 09:14:28 PM 34.0992 -82.1572 North 349 402 11,000 -600 Descending Atlanta Center
Wed 09:15:28 PM 34.1847 -82.1556 359° North 349 402 11,000 -450 Level Atlanta Center
Wed 09:16:28 PM 34.2767 -82.1583 346° North 344 396 10,100 -1,000 Descending Atlanta Center
Wed 09:17:28 PM 34.3561 -82.1819 338° Northwest 318 366 9,000 -1,350 Descending Atlanta Center
Wed 09:18:28 PM 34.4256 -82.2156 337° Northwest 291 335 7,400 -1,650 Descending Atlanta Center
Wed 09:19:28 PM 34.4972 -82.2519 340° North 276 318 5,700 -1,400 Descending Atlanta Center
Wed 09:20:28 PM 34.5664 -82.2831 346° North 270 311 4,600 -850 Descending Atlanta Center
Wed 09:21:28 PM 34.6356 -82.3044 347° North 270 311 4,000 -650 Descending Atlanta Center
Wed 09:22:28 PM 34.7006 -82.3233 13° North 259 298 3,300 -600 Descending Atlanta Center
Wed 09:23:28 PM 34.7567 -82.3069 13° North 220 253 2,800 -500 Descending Atlanta Center

Login

Don't have an account? Register now (free) for customized features, flight alerts, and more!